Time;durP1;ratioP1;P1;durP2;ratioP2;P2;SDS_P1;SDS_P2;PMS_P1;PMS_P2;Temp;Humidity;BMP_temperature;BMP_pressure;BME280_temperature;BME280_humidity;BME280_pressure;Samples;Min_cycle;Max_cycle;Signal;HPM_P1;HPM_P2
2021/12/17 00:07:00;;;;;;;;;;;9.00;58.60;;;;;;5076326;28;19908;-62
2021/12/17 00:09:26;;;;;;;;;;;8.90;58.80;;;;;;5076259;28;19908;-62
2021/12/17 00:11:52;;;;;;;;;;;8.90;58.90;;;;;;5076465;28;20003;-64
2021/12/17 00:14:26;;;;;;;;;;;8.90;58.80;;;;;;5076677;28;19915;-64
2021/12/17 00:16:52;;;;;;;;;;;9.00;58.80;;;;;;5076316;28;19962;-64
2021/12/17 00:20:27;;;;;;;;;;;9.00;58.60;;;;;;5076336;28;19966;-63
2021/12/17 00:49:32;;;;;;;;;;;9.60;57.10;;;;;;5076228;28;19919;-63
2021/12/17 00:52:00;;;;;;;;;;;9.70;57.00;;;;;;5075650;28;19917;-62
2021/12/17 00:54:37;;;;;;;;;;;9.70;56.70;;;;;;5075708;28;19976;-62
2021/12/17 00:57:09;;;;;;;;;;;9.70;56.50;;;;;;5075585;28;20451;-63
2021/12/17 00:59:35;;;;;;;;;;;9.80;56.50;;;;;;5057969;28;19916;-63
2021/12/17 01:02:02;;;;;;;;;;;9.90;56.30;;;;;;5075424;28;19913;-63
2021/12/17 01:04:27;;;;;;;;;;;9.90;56.20;;;;;;5075377;28;19947;-63
2021/12/17 01:06:53;;;;;;;;;;;9.80;56.30;;;;;;5075922;28;19955;-63
2021/12/17 01:09:20;;;;;;;;;;;9.80;56.40;;;;;;5075394;28;19960;-63
2021/12/17 01:11:46;;;;;;;;;;;9.90;56.10;;;;;;5075306;28;20003;-62
2021/12/17 01:14:12;;;;;;;;;;;9.90;56.00;;;;;;5075198;28;20042;-63
2021/12/17 01:16:38;;;;;;;;;;;9.90;55.90;;;;;;5075496;28;20297;-62
2021/12/17 01:42:39;;;;;;;;;;;9.70;56.60;;;;;;5075148;28;19963;-62
2021/12/17 01:45:05;;;;;;;;;;;9.70;56.60;;;;;;5074974;28;20376;-63
2021/12/17 01:47:31;;;;;;;;;;;9.60;57.00;;;;;;5074720;28;19915;-64
2021/12/17 02:00:53;;;;;;;;;;;9.80;56.60;;;;;;5074720;28;19915;-63
2021/12/17 02:03:19;;;;;;;;;;;9.80;56.50;;;;;;5074659;28;19970;-62
2021/12/17 02:05:45;;;;;;;;;;;9.90;56.40;;;;;;5074364;28;19916;-63
2021/12/17 02:08:11;;;;;;;;;;;9.90;56.40;;;;;;5074270;28;19940;-63
2021/12/17 02:31:44;;;;;;;;;;;10.00;56.50;;;;;;5074117;28;19916;-62
2021/12/17 02:36:45;;;;;;;;;;;10.10;56.00;;;;;;5074009;28;19951;-63
2021/12/17 02:47:07;;;;;;;;;;;10.00;56.10;;;;;;5074213;28;20283;-63
2021/12/17 02:49:34;;;;;;;;;;;10.00;56.20;;;;;;5074225;28;20368;-63
2021/12/17 02:52:01;;;;;;;;;;;10.00;56.10;;;;;;5074018;28;19917;-63
2021/12/17 02:54:27;;;;;;;;;;;9.90;56.40;;;;;;5073652;28;19939;-63
2021/12/17 02:56:53;;;;;;;;;;;9.90;56.70;;;;;;5074218;28;19909;-64
2021/12/17 02:59:19;;;;;;;;;;;9.80;56.90;;;;;;5074319;28;19924;-63
2021/12/17 03:01:45;;;;;;;;;;;9.90;56.90;;;;;;5073936;28;19915;-63
2021/12/17 03:04:12;;;;;;;;;;;9.90;56.70;;;;;;5073991;28;19912;-63
2021/12/17 03:06:40;;;;;;;;;;;9.90;56.80;;;;;;5074217;28;19932;-64
2021/12/17 03:09:06;;;;;;;;;;;9.90;56.60;;;;;;5073633;28;19915;-63
2021/12/17 03:11:31;;;;;;;;;;;9.90;56.70;;;;;;5073976;28;20283;-62
2021/12/17 03:13:57;;;;;;;;;;;9.90;57.00;;;;;;5073772;28;19909;-62
2021/12/17 03:16:56;;;;;;;;;;;9.80;57.00;;;;;;5073926;28;19908;-63
2021/12/17 03:19:26;;;;;;;;;;;9.80;57.10;;;;;;5073039;28;19962;-63
2021/12/17 03:24:36;;;;;;;;;;;10.10;56.50;;;;;;5073483;28;20311;-62
2021/12/17 03:27:04;;;;;;;;;;;10.00;56.70;;;;;;5073801;28;19909;-62
2021/12/17 03:29:30;;;;;;;;;;;10.10;56.80;;;;;;5073597;28;19948;-63
2021/12/17 03:31:55;;;;;;;;;;;10.10;56.70;;;;;;5073538;28;19975;-62
2021/12/17 03:34:21;;;;;;;;;;;10.10;56.60;;;;;;5073762;28;19947;-62
2021/12/17 03:36:53;;;;;;;;;;;10.20;56.30;;;;;;5073476;28;20338;-62
2021/12/17 03:39:19;;;;;;;;;;;10.20;56.30;;;;;;5074041;28;19997;-63
2021/12/17 03:41:50;;;;;;;;;;;10.20;56.50;;;;;;5073970;28;19916;-62
2021/12/17 03:44:16;;;;;;;;;;;10.20;56.50;;;;;;5073455;28;19917;-62
2021/12/17 03:46:44;;;;;;;;;;;10.30;56.20;;;;;;5073987;28;19948;-62
2021/12/17 03:49:10;;;;;;;;;;;10.30;56.00;;;;;;5073668;28;19908;-63
2021/12/17 03:51:46;;;;;;;;;;;10.30;56.00;;;;;;5055458;28;20287;-61
2021/12/17 03:54:12;;;;;;;;;;;10.20;56.10;;;;;;5073781;28;19962;-61
2021/12/17 03:56:38;;;;;;;;;;;10.20;56.10;;;;;;5073516;28;19912;-63
2021/12/17 03:59:10;;;;;;;;;;;10.20;56.00;;;;;;5073154;28;19947;-63
2021/12/17 04:01:35;;;;;;;;;;;10.20;56.20;;;;;;5073805;28;19915;-62
2021/12/17 04:04:01;;;;;;;;;;;10.20;56.30;;;;;;5073491;28;19908;-63
2021/12/17 04:06:27;;;;;;;;;;;10.10;56.30;;;;;;5074533;28;20351;-62
2021/12/17 04:08:54;;;;;;;;;;;10.10;56.30;;;;;;5076998;28;19908;-62
2021/12/17 04:11:20;;;;;;;;;;;10.20;56.30;;;;;;5076541;28;19916;-62
2021/12/17 04:13:53;;;;;;;;;;;10.10;56.40;;;;;;5076681;28;19908;-63
2021/12/17 04:16:23;;;;;;;;;;;10.20;56.40;;;;;;5076473;28;19908;-63
2021/12/17 04:18:48;;;;;;;;;;;10.20;56.40;;;;;;5076730;28;20379;-62
2021/12/17 04:21:14;;;;;;;;;;;10.20;56.10;;;;;;5076582;28;19913;-64
2021/12/17 04:23:40;;;;;;;;;;;10.20;56.20;;;;;;5076374;28;19912;-63
2021/12/17 04:26:06;;;;;;;;;;;10.10;56.30;;;;;;5076582;28;19912;-62
2021/12/17 04:28:31;;;;;;;;;;;10.00;56.80;;;;;;5076172;28;19978;-63
2021/12/17 04:30:57;;;;;;;;;;;9.90;57.10;;;;;;5075991;28;19917;-62
2021/12/17 04:33:23;;;;;;;;;;;9.90;57.50;;;;;;5076613;28;19909;-63
2021/12/17 04:35:48;;;;;;;;;;;9.70;58.10;;;;;;5076192;28;19908;-63
2021/12/17 04:38:16;;;;;;;;;;;9.50;58.50;;;;;;5076397;28;20424;-62
2021/12/17 04:40:43;;;;;;;;;;;9.50;59.00;;;;;;5075967;28;19947;-64
2021/12/17 04:45:43;;;;;;;;;;;9.30;59.50;;;;;;5075931;28;19920;-62
2021/12/17 04:59:07;;;;;;;;;;;9.40;59.20;;;;;;5081610;28;20730;-62
2021/12/17 05:01:33;;;;;;;;;;;9.80;57.70;;;;;;5075302;28;19912;-63
2021/12/17 05:03:59;;;;;;;;;;;9.90;57.10;;;;;;5075225;28;19912;-63
2021/12/17 05:06:29;;;;;;;;;;;10.00;56.60;;;;;;5075136;28;20027;-62
2021/12/17 05:08:59;;;;;;;;;;;10.10;56.40;;;;;;5075459;28;19912;-64
2021/12/17 05:22:11;;;;;;;;;;;10.20;55.90;;;;;;5078052;28;19909;-63
2021/12/17 05:24:36;;;;;;;;;;;10.30;55.80;;;;;;5083466;28;20268;-62
2021/12/17 05:27:02;;;;;;;;;;;10.30;55.50;;;;;;5083755;28;19916;-63
2021/12/17 05:29:28;;;;;;;;;;;10.40;55.50;;;;;;5065607;28;19912;-64
2021/12/17 05:31:54;;;;;;;;;;;10.30;55.60;;;;;;5082996;28;20020;-63
2021/12/17 05:34:19;;;;;;;;;;;10.30;55.60;;;;;;5083737;28;19909;-63
2021/12/17 05:36:45;;;;;;;;;;;10.10;56.60;;;;;;5083987;28;19909;-63
2021/12/17 05:39:10;;;;;;;;;;;9.80;57.60;;;;;;5080318;28;19908;-63
2021/12/17 05:41:36;;;;;;;;;;;9.50;58.50;;;;;;5079291;28;19934;-64
2021/12/17 05:44:02;;;;;;;;;;;9.40;59.40;;;;;;5077809;28;20037;-63
2021/12/17 05:49:23;;;;;;;;;;;9.10;60.30;;;;;;5060373;28;19912;-64
2021/12/17 05:51:50;;;;;;;;;;;9.00;60.90;;;;;;5080630;28;19923;-62
2021/12/17 05:54:16;;;;;;;;;;;8.90;61.50;;;;;;5084969;28;20319;-65
2021/12/17 05:56:42;;;;;;;;;;;8.80;61.20;;;;;;5080635;28;19909;-62
2021/12/17 05:59:08;;;;;;;;;;;8.80;61.60;;;;;;5077983;28;19915;-63
2021/12/17 06:01:34;;;;;;;;;;;8.80;61.30;;;;;;5081408;28;19920;-63
2021/12/17 06:04:00;;;;;;;;;;;8.90;61.30;;;;;;5078926;28;19908;-64
2021/12/17 06:06:26;;;;;;;;;;;8.70;61.90;;;;;;5079203;28;20007;-62
2021/12/17 06:08:51;;;;;;;;;;;8.50;62.90;;;;;;5077371;28;19991;-64
2021/12/17 06:11:17;;;;;;;;;;;8.40;63.30;;;;;;5077987;28;20011;-62
2021/12/17 06:13:42;;;;;;;;;;;8.40;63.80;;;;;;5078630;28;19975;-63
2021/12/17 06:16:08;;;;;;;;;;;8.40;63.70;;;;;;5081321;28;19909;-62
2021/12/17 06:18:33;;;;;;;;;;;8.40;63.40;;;;;;5084860;28;19930;-63
2021/12/17 06:20:59;;;;;;;;;;;8.10;64.20;;;;;;5082603;28;19912;-63
2021/12/17 06:23:25;;;;;;;;;;;8.10;64.90;;;;;;5082133;28;19908;-63
2021/12/17 06:25:50;;;;;;;;;;;8.00;65.10;;;;;;5081493;28;20332;-63
2021/12/17 06:28:16;;;;;;;;;;;8.00;66.30;;;;;;5081752;28;19908;-63
2021/12/17 06:30:42;;;;;;;;;;;8.00;67.00;;;;;;5064060;28;19913;-63
2021/12/17 06:33:08;;;;;;;;;;;7.90;65.90;;;;;;5081230;28;19942;-64
2021/12/17 06:35:34;;;;;;;;;;;7.80;66.20;;;;;;5083294;28;19908;-62
2021/12/17 06:37:59;;;;;;;;;;;7.80;66.20;;;;;;5084374;28;19909;-64
2021/12/17 06:40:25;;;;;;;;;;;7.60;66.40;;;;;;5081976;28;19908;-64
2021/12/17 06:42:51;;;;;;;;;;;7.70;66.60;;;;;;5081485;28;19938;-62
2021/12/17 06:45:34;;;;;;;;;;;7.70;66.50;;;;;;5078188;28;19966;-64
2021/12/17 06:48:00;;;;;;;;;;;7.60;66.70;;;;;;5081302;28;19912;-62
2021/12/17 07:01:21;;;;;;;;;;;8.00;66.60;;;;;;5080864;28;19916;-64
2021/12/17 07:17:22;;;;;;;;;;;9.50;61.90;;;;;;5060551;28;20272;-63
2021/12/17 07:22:47;;;;;;;;;;;9.40;61.50;;;;;;5075709;28;20007;-63
2021/12/17 07:36:08;;;;;;;;;;;8.60;63.50;;;;;;5076585;28;19915;-66
2021/12/17 07:41:00;;;;;;;;;;;8.50;64.80;;;;;;5059262;28;19909;-66
2021/12/17 07:43:30;;;;;;;;;;;8.20;65.60;;;;;;5074014;28;19972;-64
2021/12/17 07:45:56;;;;;;;;;;;8.10;66.40;;;;;;5054744;28;20383;-66
2021/12/17 07:48:22;;;;;;;;;;;8.10;67.00;;;;;;5044362;28;19909;-67
2021/12/17 07:50:47;;;;;;;;;;;8.10;67.40;;;;;;5043165;28;19992;-69
2021/12/17 07:53:13;;;;;;;;;;;8.10;67.40;;;;;;5060157;28;19924;-66
2021/12/17 07:55:39;;;;;;;;;;;8.20;67.40;;;;;;5059966;28;19932;-63
2021/12/17 07:58:05;;;;;;;;;;;8.30;66.90;;;;;;5060273;28;19937;-73
2021/12/17 08:00:31;;;;;;;;;;;8.40;67.00;;;;;;5061421;28;19990;-74
2021/12/17 08:02:56;;;;;;;;;;;8.50;67.00;;;;;;5059796;28;19916;-66
2021/12/17 08:05:22;;;;;;;;;;;8.50;66.80;;;;;;5059353;28;19909;-68
2021/12/17 08:07:47;;;;;;;;;;;8.60;66.50;;;;;;5057282;28;19909;-63
2021/12/17 08:10:13;;;;;;;;;;;8.80;66.10;;;;;;5059061;28;19909;-67
2021/12/17 08:12:39;;;;;;;;;;;8.90;66.10;;;;;;5058114;28;20506;-67
2021/12/17 08:15:08;;;;;;;;;;;9.10;65.00;;;;;;5058516;28;19909;-68
2021/12/17 08:18:08;;;;;;;;;;;9.20;64.50;;;;;;5059442;28;19909;-65
2021/12/17 08:28:25;;;;;;;;;;;9.60;62.90;;;;;;5059380;28;19909;-73
2021/12/17 08:30:51;;;;;;;;;;;9.70;62.80;;;;;;5057274;28;19909;-71
2021/12/17 08:33:20;;;;;;;;;;;9.80;61.60;;;;;;5060705;28;20283;-70
2021/12/17 08:35:46;;;;;;;;;;;9.90;61.80;;;;;;5066190;28;19909;-68
2021/12/17 08:38:12;;;;;;;;;;;10.00;62.00;;;;;;5067042;28;19913;-72
2021/12/17 08:40:38;;;;;;;;;;;10.00;62.50;;;;;;5059046;28;19913;-70
2021/12/17 08:43:04;;;;;;;;;;;10.10;61.60;;;;;;5054550;28;20430;-68
2021/12/17 08:45:30;;;;;;;;;;;10.10;62.00;;;;;;5068010;28;19947;-67
2021/12/17 08:47:56;;;;;;;;;;;10.20;61.20;;;;;;5072291;28;20382;-70
2021/12/17 08:50:22;;;;;;;;;;;10.20;60.60;;;;;;5063489;28;19913;-69
2021/12/17 08:52:48;;;;;;;;;;;10.40;59.60;;;;;;5059625;28;19924;-69
2021/12/17 08:55:13;;;;;;;;;;;10.70;57.60;;;;;;5055007;28;20369;-74
2021/12/17 08:57:39;;;;;;;;;;;10.80;57.30;;;;;;5052284;28;19909;-73
2021/12/17 09:00:07;;;;;;;;;;;10.80;57.40;;;;;;5055167;28;19988;-69
2021/12/17 09:02:35;;;;;;;;;;;10.60;57.60;;;;;;5055010;28;20307;-68
2021/12/17 09:05:01;;;;;;;;;;;10.80;56.80;;;;;;5054913;28;19917;-69
2021/12/17 09:07:26;;;;;;;;;;;10.80;57.60;;;;;;5054909;28;19909;-71
2021/12/17 09:09:52;;;;;;;;;;;10.80;56.90;;;;;;5052597;28;19947;-70
2021/12/17 09:12:17;;;;;;;;;;;10.80;56.40;;;;;;5055192;28;19970;-72
2021/12/17 09:14:43;;;;;;;;;;;10.90;56.50;;;;;;5055089;28;20383;-63
2021/12/17 09:17:09;;;;;;;;;;;11.20;56.00;;;;;;5062141;28;19915;-69
2021/12/17 09:19:34;;;;;;;;;;;11.40;53.70;;;;;;5056298;28;19910;-68
2021/12/17 09:22:01;;;;;;;;;;;11.60;52.90;;;;;;5055896;28;19909;-63
2021/12/17 09:24:28;;;;;;;;;;;11.70;53.80;;;;;;5056313;28;19931;-61
2021/12/17 09:26:55;;;;;;;;;;;11.70;53.60;;;;;;5059769;28;20357;-65
2021/12/17 09:29:21;;;;;;;;;;;12.00;51.30;;;;;;5067157;28;19909;-63
2021/12/17 09:31:46;;;;;;;;;;;12.10;50.10;;;;;;5077279;28;19924;-64
2021/12/17 09:34:12;;;;;;;;;;;12.10;49.90;;;;;;5079992;28;20000;-63
2021/12/17 09:36:39;;;;;;;;;;;12.10;49.80;;;;;;5046735;28;19912;-65
2021/12/17 09:39:05;;;;;;;;;;;12.10;49.90;;;;;;5057902;28;19917;-68
2021/12/17 09:41:31;;;;;;;;;;;12.30;49.70;;;;;;5077268;28;19913;-62
2021/12/17 09:43:57;;;;;;;;;;;12.40;49.00;;;;;;5078414;28;19978;-62
2021/12/17 09:46:22;;;;;;;;;;;12.50;48.90;;;;;;5072293;28;19928;-63
2021/12/17 09:48:48;;;;;;;;;;;12.50;48.80;;;;;;5069947;28;20280;-63
2021/12/17 09:51:15;;;;;;;;;;;12.50;48.50;;;;;;5060284;28;20325;-64
2021/12/17 09:53:41;;;;;;;;;;;12.50;48.60;;;;;;5070707;28;19913;-67
2021/12/17 09:56:07;;;;;;;;;;;12.70;48.60;;;;;;5063885;28;20359;-66
2021/12/17 09:58:33;;;;;;;;;;;12.90;48.80;;;;;;5060808;28;19915;-64
2021/12/17 10:00:58;;;;;;;;;;;13.10;49.10;;;;;;5076139;28;19908;-61
2021/12/17 10:03:24;;;;;;;;;;;13.30;49.20;;;;;;5069411;28;20346;-62
2021/12/17 10:05:50;;;;;;;;;;;13.40;49.60;;;;;;5055970;28;19909;-62
2021/12/17 10:08:19;;;;;;;;;;;13.50;49.60;;;;;;5063632;28;19970;-68
2021/12/17 10:10:49;;;;;;;;;;;13.50;50.20;;;;;;5075048;28;20322;-61
2021/12/17 10:13:18;;;;;;;;;;;13.40;49.90;;;;;;5054080;28;20253;-66
2021/12/17 10:15:46;;;;;;;;;;;13.20;51.20;;;;;;5068851;28;20173;-70
2021/12/17 10:18:13;;;;;;;;;;;13.00;51.80;;;;;;5054525;28;19916;-73
2021/12/17 10:20:52;;;;;;;;;;;13.00;51.90;;;;;;5055681;28;19909;-71
2021/12/17 10:23:20;;;;;;;;;;;13.10;52.10;;;;;;5056209;28;20321;-63
2021/12/17 10:25:46;;;;;;;;;;;13.10;52.60;;;;;;5070271;28;20334;-70
2021/12/17 10:28:12;;;;;;;;;;;13.10;53.00;;;;;;5067187;28;19912;-62
2021/12/17 10:30:40;;;;;;;;;;;13.20;54.20;;;;;;5064542;28;19908;-65
2021/12/17 10:33:07;;;;;;;;;;;13.20;53.90;;;;;;5069977;28;19938;-70
2021/12/17 10:35:37;;;;;;;;;;;13.40;54.70;;;;;;5065854;28;20490;-68
2021/12/17 10:38:05;;;;;;;;;;;13.50;55.80;;;;;;5064529;28;20292;-68
2021/12/17 10:40:35;;;;;;;;;;;13.70;55.10;;;;;;5056166;28;19936;-69
2021/12/17 10:45:30;;;;;;;;;;;13.60;53.10;;;;;;5045303;28;19941;-72
2021/12/17 10:51:17;;;;;;;;;;;13.60;52.70;;;;;;5036134;28;19936;-65
2021/12/17 10:53:51;;;;;;;;;;;13.50;53.40;;;;;;5059182;28;19940;-64
2021/12/17 10:56:17;;;;;;;;;;;13.30;51.80;;;;;;5049791;28;19909;-69
2021/12/17 10:58:52;;;;;;;;;;;13.30;53.80;;;;;;5040310;28;19909;-63
2021/12/17 11:01:27;;;;;;;;;;;13.40;54.00;;;;;;5019218;28;20388;-63
2021/12/17 11:04:02;;;;;;;;;;;13.20;52.10;;;;;;5038066;28;20349;-68
2021/12/17 11:06:40;;;;;;;;;;;13.10;53.40;;;;;;5037827;28;19953;-62
2021/12/17 11:09:05;;;;;;;;;;;13.00;52.60;;;;;;5048079;28;19909;-64
2021/12/17 11:11:33;;;;;;;;;;;13.00;54.40;;;;;;5021440;28;19913;-63
2021/12/17 11:14:00;;;;;;;;;;;13.00;54.80;;;;;;5039239;28;20420;-70
2021/12/17 11:16:29;;;;;;;;;;;12.90;52.20;;;;;;5057274;28;20280;-67
2021/12/17 11:18:54;;;;;;;;;;;12.90;54.10;;;;;;5058577;28;20434;-71
2021/12/17 11:21:21;;;;;;;;;;;12.90;55.50;;;;;;5059153;28;19909;-67
2021/12/17 11:23:47;;;;;;;;;;;12.80;54.80;;;;;;5047845;28;20004;-69
2021/12/17 11:26:13;;;;;;;;;;;12.60;53.00;;;;;;5040317;28;19999;-74
2021/12/17 11:28:39;;;;;;;;;;;12.70;55.80;;;;;;5039723;28;19914;-65
2021/12/17 11:31:06;;;;;;;;;;;12.80;57.40;;;;;;5038546;28;19974;-71
2021/12/17 11:33:32;;;;;;;;;;;13.10;57.70;;;;;;5038098;28;19909;-70
2021/12/17 11:35:58;;;;;;;;;;;13.20;57.20;;;;;;5020129;28;20426;-70
2021/12/17 11:38:29;;;;;;;;;;;13.20;54.30;;;;;;5038556;28;20007;-69
2021/12/17 11:40:56;;;;;;;;;;;13.20;54.80;;;;;;5038270;28;20006;-71
2021/12/17 11:43:24;;;;;;;;;;;13.30;55.30;;;;;;5038186;28;19910;-70
2021/12/17 11:45:58;;;;;;;;;;;13.40;53.70;;;;;;5037395;28;19929;-65
2021/12/17 11:48:25;;;;;;;;;;;13.50;54.60;;;;;;5036960;28;19987;-64
2021/12/17 11:51:19;;;;;;;;;;;13.60;53.70;;;;;;5036540;28;19910;-65
2021/12/17 11:53:59;;;;;;;;;;;13.60;53.10;;;;;;5021524;28;19913;-63
2021/12/17 11:56:30;;;;;;;;;;;13.70;53.00;;;;;;5038324;28;19913;-61
2021/12/17 11:58:56;;;;;;;;;;;13.80;52.80;;;;;;5035659;28;19959;-67
2021/12/17 12:01:40;;;;;;;;;;;13.90;53.60;;;;;;5035763;28;19913;-64
2021/12/17 12:04:38;;;;;;;;;;;14.10;52.30;;;;;;5035444;28;19999;-68
2021/12/17 12:07:04;;;;;;;;;;;14.10;53.50;;;;;;5035740;28;20096;-67
2021/12/17 12:09:54;;;;;;;;;;;14.00;53.60;;;;;;5035618;28;20364;-66
2021/12/17 12:12:19;;;;;;;;;;;13.90;53.80;;;;;;5035772;28;19917;-68
2021/12/17 12:14:45;;;;;;;;;;;14.00;52.80;;;;;;5035583;28;19909;-68
2021/12/17 12:17:11;;;;;;;;;;;14.00;53.30;;;;;;5035532;28;19995;-68
2021/12/17 12:19:49;;;;;;;;;;;14.00;52.40;;;;;;5035506;28;19916;-67
2021/12/17 12:22:28;;;;;;;;;;;14.10;51.70;;;;;;5035723;28;19913;-62
2021/12/17 12:25:12;;;;;;;;;;;14.10;52.20;;;;;;5035419;28;19913;-65
2021/12/17 12:27:44;;;;;;;;;;;14.10;51.80;;;;;;5034362;28;19909;-66
2021/12/17 12:30:10;;;;;;;;;;;14.10;52.20;;;;;;5037646;28;19919;-65
2021/12/17 12:32:55;;;;;;;;;;;14.00;52.20;;;;;;5046782;28;20015;-68
2021/12/17 12:35:21;;;;;;;;;;;13.80;51.50;;;;;;5053165;28;20257;-67
2021/12/17 12:38:06;;;;;;;;;;;13.50;51.60;;;;;;5052150;28;19923;-66
2021/12/17 12:40:34;;;;;;;;;;;13.50;52.20;;;;;;5042839;28;19982;-68
2021/12/17 12:43:00;;;;;;;;;;;13.60;52.60;;;;;;5048550;28;19916;-69
2021/12/17 12:45:28;;;;;;;;;;;13.70;54.70;;;;;;5063148;28;19924;-68
2021/12/17 12:47:55;;;;;;;;;;;13.70;53.90;;;;;;5067058;28;19962;-67
2021/12/17 12:50:24;;;;;;;;;;;13.80;54.00;;;;;;5062350;28;19936;-69
2021/12/17 12:52:51;;;;;;;;;;;13.80;53.80;;;;;;5058190;28;19921;-66
2021/12/17 12:55:21;;;;;;;;;;;13.80;54.10;;;;;;5065337;28;19908;-69
2021/12/17 12:57:51;;;;;;;;;;;13.80;54.20;;;;;;5070781;28;20314;-70
2021/12/17 13:00:17;;;;;;;;;;;13.60;54.10;;;;;;5063072;28;19913;-70
2021/12/17 13:02:43;;;;;;;;;;;13.60;54.90;;;;;;5069151;28;20379;-71
2021/12/17 13:05:09;;;;;;;;;;;13.40;54.60;;;;;;5070143;28;19908;-67
2021/12/17 13:07:41;;;;;;;;;;;13.40;54.30;;;;;;5071739;28;19999;-67
2021/12/17 13:10:06;;;;;;;;;;;13.40;54.20;;;;;;5074487;28;19912;-70
2021/12/17 13:12:35;;;;;;;;;;;13.40;54.00;;;;;;5074989;28;19970;-68
2021/12/17 13:15:06;;;;;;;;;;;13.30;54.20;;;;;;5066141;28;19966;-69
2021/12/17 13:20:15;;;;;;;;;;;13.30;54.10;;;;;;5046992;28;20276;-69
2021/12/17 13:20:54;;;;;;;;;;;13.30;54.40;;;;;;5048784;28;19993;-66
2021/12/17 13:23:21;;;;;;;;;;;13.30;54.20;;;;;;5061890;28;20340;-65
2021/12/17 13:25:58;;;;;;;;;;;13.40;54.30;;;;;;5068029;28;19909;-67
2021/12/17 13:28:24;;;;;;;;;;;13.30;54.20;;;;;;5054218;28;19909;-64
2021/12/17 13:30:53;;;;;;;;;;;13.10;54.80;;;;;;5061983;28;20030;-70
2021/12/17 13:33:19;;;;;;;;;;;13.00;55.40;;;;;;5068818;28;19958;-64
2021/12/17 13:35:45;;;;;;;;;;;12.80;56.10;;;;;;5075410;28;20003;-64
2021/12/17 13:38:11;;;;;;;;;;;12.80;56.00;;;;;;5077142;28;19913;-66
2021/12/17 13:40:37;;;;;;;;;;;12.80;56.00;;;;;;5062635;28;19944;-64
2021/12/17 13:43:03;;;;;;;;;;;12.70;56.20;;;;;;5073830;28;20310;-63
2021/12/17 13:45:30;;;;;;;;;;;12.60;56.70;;;;;;5072652;28;19921;-62
2021/12/17 13:47:57;;;;;;;;;;;12.70;55.70;;;;;;5070085;28;19912;-62
2021/12/17 13:50:24;;;;;;;;;;;12.70;55.60;;;;;;5069687;28;19962;-64
2021/12/17 13:52:53;;;;;;;;;;;12.80;55.60;;;;;;5060195;28;19927;-68
2021/12/17 13:55:23;;;;;;;;;;;12.60;56.50;;;;;;5067552;28;20299;-62
2021/12/17 13:57:48;;;;;;;;;;;12.60;56.10;;;;;;5073218;28;19916;-67
2021/12/17 14:00:20;;;;;;;;;;;12.50;56.70;;;;;;5064944;28;19912;-64
2021/12/17 14:02:46;;;;;;;;;;;12.40;57.10;;;;;;5073578;28;19912;-66
2021/12/17 14:05:40;;;;;;;;;;;12.30;57.20;;;;;;5064327;28;19966;-73
2021/12/17 14:08:08;;;;;;;;;;;12.30;57.70;;;;;;5069369;28;20352;-68
2021/12/17 14:10:35;;;;;;;;;;;12.20;57.60;;;;;;5049672;28;19962;-72
2021/12/17 14:13:01;;;;;;;;;;;12.20;57.80;;;;;;5064142;28;19967;-65
2021/12/17 14:15:28;;;;;;;;;;;12.10;58.00;;;;;;5067110;28;20332;-67
2021/12/17 14:17:55;;;;;;;;;;;12.10;58.30;;;;;;5054870;28;20365;-63
2021/12/17 14:20:22;;;;;;;;;;;12.10;58.70;;;;;;5054960;28;19908;-64
2021/12/17 14:22:52;;;;;;;;;;;12.00;58.80;;;;;;5054706;28;19935;-61
2021/12/17 14:25:25;;;;;;;;;;;11.90;58.80;;;;;;5054339;28;19963;-61
2021/12/17 14:27:51;;;;;;;;;;;11.80;59.10;;;;;;5053846;28;19909;-62
2021/12/17 14:30:21;;;;;;;;;;;11.70;59.40;;;;;;5037838;28;20390;-63
2021/12/17 14:32:47;;;;;;;;;;;11.70;59.50;;;;;;5059909;28;20430;-61
2021/12/17 14:35:13;;;;;;;;;;;11.60;59.40;;;;;;5060195;28;19913;-63
2021/12/17 14:37:49;;;;;;;;;;;11.70;59.30;;;;;;5058369;28;19915;-61
2021/12/17 14:40:33;;;;;;;;;;;11.70;58.90;;;;;;5055211;28;19913;-65
2021/12/17 14:42:59;;;;;;;;;;;11.70;58.60;;;;;;5035036;28;19967;-62
2021/12/17 14:45:32;;;;;;;;;;;11.60;58.20;;;;;;5022513;28;19925;-72
2021/12/17 14:48:24;;;;;;;;;;;11.60;58.60;;;;;;5034098;28;19963;-67
2021/12/17 15:00:18;;;;;;;;;;;11.40;58.20;;;;;;5027036;28;19921;-65
2021/12/17 15:02:24;;;;;;;;;;;11.30;59.10;;;;;;5034804;28;19920;-67
2021/12/17 15:04:50;;;;;;;;;;;11.00;59.90;;;;;;5049425;28;19924;-70
2021/12/17 15:07:18;;;;;;;;;;;10.80;60.20;;;;;;5047307;28;19912;-61
2021/12/17 15:09:45;;;;;;;;;;;10.70;60.20;;;;;;5046831;28;19921;-65
2021/12/17 15:12:25;;;;;;;;;;;10.70;59.80;;;;;;5055236;28;19921;-63
2021/12/17 15:14:51;;;;;;;;;;;10.60;59.70;;;;;;5053331;28;20380;-65
2021/12/17 15:17:17;;;;;;;;;;;10.80;59.50;;;;;;5045699;28;19909;-64
2021/12/17 15:19:43;;;;;;;;;;;10.80;59.00;;;;;;5043714;28;19920;-69
2021/12/17 15:22:09;;;;;;;;;;;10.80;59.20;;;;;;5042703;28;19909;-66
2021/12/17 15:24:34;;;;;;;;;;;11.00;59.00;;;;;;5043118;28;20292;-61
2021/12/17 15:27:00;;;;;;;;;;;11.10;58.00;;;;;;5032936;28;20020;-64
2021/12/17 15:29:25;;;;;;;;;;;11.10;57.80;;;;;;5033231;28;19909;-64
2021/12/17 15:31:54;;;;;;;;;;;10.90;58.50;;;;;;5033802;28;20420;-62
2021/12/17 15:34:20;;;;;;;;;;;10.70;58.90;;;;;;5038543;28;19984;-62
2021/12/17 15:36:46;;;;;;;;;;;10.50;59.90;;;;;;5050546;28;19956;-62
2021/12/17 15:39:13;;;;;;;;;;;10.40;60.30;;;;;;5024814;28;21211;-64
2021/12/17 15:41:41;;;;;;;;;;;10.40;60.50;;;;;;5047756;28;19920;-63
2021/12/17 15:44:10;;;;;;;;;;;10.40;61.10;;;;;;5051389;28;19912;-67
2021/12/17 15:46:36;;;;;;;;;;;10.40;62.10;;;;;;5070647;28;19909;-62
2021/12/17 15:49:02;;;;;;;;;;;10.30;61.50;;;;;;5072945;28;19954;-62
2021/12/17 15:51:28;;;;;;;;;;;10.30;61.60;;;;;;5063264;28;19917;-65
2021/12/17 15:53:55;;;;;;;;;;;10.60;60.20;;;;;;5072882;28;20410;-64
2021/12/17 15:56:21;;;;;;;;;;;10.50;60.70;;;;;;5073345;28;19908;-63
2021/12/17 15:58:47;;;;;;;;;;;10.60;59.70;;;;;;5065882;28;19914;-65
2021/12/17 16:01:12;;;;;;;;;;;10.30;60.80;;;;;;5055605;28;19991;-64
2021/12/17 16:03:38;;;;;;;;;;;10.00;62.00;;;;;;5057417;28;20023;-64
2021/12/17 16:06:05;;;;;;;;;;;9.80;62.70;;;;;;5072196;28;19953;-64
2021/12/17 16:08:34;;;;;;;;;;;9.70;63.20;;;;;;5074005;28;19960;-63
2021/12/17 16:11:12;;;;;;;;;;;9.70;63.20;;;;;;5052189;28;19913;-63
2021/12/17 16:21:38;;;;;;;;;;;9.60;62.80;;;;;;5073673;28;19999;-66
2021/12/17 16:24:04;;;;;;;;;;;9.60;62.90;;;;;;5056356;28;20072;-64
2021/12/17 16:26:30;;;;;;;;;;;9.70;62.80;;;;;;5062471;28;19999;-66
2021/12/17 16:28:56;;;;;;;;;;;9.50;63.30;;;;;;5057209;28;20320;-62
2021/12/17 16:31:22;;;;;;;;;;;9.30;64.00;;;;;;5058484;28;19976;-65
2021/12/17 16:33:54;;;;;;;;;;;9.20;64.90;;;;;;5066779;28;19924;-66
2021/12/17 16:36:21;;;;;;;;;;;9.00;64.80;;;;;;5062987;28;19964;-69
2021/12/17 16:38:47;;;;;;;;;;;9.10;65.10;;;;;;5070230;28;19909;-63
2021/12/17 16:41:12;;;;;;;;;;;9.00;64.50;;;;;;5061865;28;19962;-64
2021/12/17 16:43:40;;;;;;;;;;;9.20;65.00;;;;;;5066301;28;20368;-70
2021/12/17 16:48:39;;;;;;;;;;;9.40;63.80;;;;;;5059061;28;19916;-61
2021/12/17 16:51:06;;;;;;;;;;;9.40;63.50;;;;;;5072833;28;19913;-63
2021/12/17 16:53:32;;;;;;;;;;;9.20;63.50;;;;;;5070527;28;19944;-64
2021/12/17 16:55:58;;;;;;;;;;;9.20;63.80;;;;;;5041031;28;20288;-63
2021/12/17 16:58:25;;;;;;;;;;;9.20;64.00;;;;;;5039735;28;20292;-65
2021/12/17 17:00:51;;;;;;;;;;;9.00;64.40;;;;;;5076479;28;20349;-66
2021/12/17 17:03:17;;;;;;;;;;;8.90;64.60;;;;;;5058852;28;19952;-63
2021/12/17 17:05:43;;;;;;;;;;;8.80;65.00;;;;;;5055342;28;19965;-62
2021/12/17 17:08:09;;;;;;;;;;;8.80;64.70;;;;;;5066258;28;19908;-68
2021/12/17 17:10:34;;;;;;;;;;;8.80;64.90;;;;;;5036770;28;19912;-67
2021/12/17 17:13:03;;;;;;;;;;;8.80;65.40;;;;;;5056780;28;20030;-66
2021/12/17 17:15:33;;;;;;;;;;;8.70;65.60;;;;;;5037936;28;19909;-64
2021/12/17 17:18:00;;;;;;;;;;;8.70;64.60;;;;;;5056209;28;19909;-67
2021/12/17 17:20:26;;;;;;;;;;;8.70;64.30;;;;;;5050263;28;19912;-66
2021/12/17 17:22:51;;;;;;;;;;;8.80;64.20;;;;;;5080606;28;19909;-66
2021/12/17 17:25:17;;;;;;;;;;;8.70;64.50;;;;;;5080022;28;19967;-66
2021/12/17 17:27:42;;;;;;;;;;;8.70;64.70;;;;;;5053813;28;19917;-66
2021/12/17 17:30:08;;;;;;;;;;;8.70;64.60;;;;;;5066766;28;19908;-63
2021/12/17 17:32:36;;;;;;;;;;;8.70;64.70;;;;;;5076684;28;19939;-64
2021/12/17 17:35:02;;;;;;;;;;;8.70;64.50;;;;;;5060707;28;19909;-65
2021/12/17 17:37:31;;;;;;;;;;;8.60;64.80;;;;;;5068304;28;19912;-65
2021/12/17 17:39:58;;;;;;;;;;;8.70;64.60;;;;;;5061410;28;19909;-65
2021/12/17 17:42:24;;;;;;;;;;;8.70;64.80;;;;;;5049238;28;19940;-67
2021/12/17 17:44:50;;;;;;;;;;;8.60;64.80;;;;;;5070204;28;19968;-64
2021/12/17 17:47:21;;;;;;;;;;;8.40;65.10;;;;;;5067408;28;19915;-66
2021/12/17 17:49:47;;;;;;;;;;;8.40;65.20;;;;;;5057667;28;19909;-64